sensor_id;sensor_type;location;lat;lon;timestamp;P1;durP1;ratioP1;P2;durP2;ratioP2
51758;SDS011;66684;47.568;18.734;2023-05-10T00:01:09;3.97;;;1.40;;
51758;SDS011;66684;47.568;18.734;2023-05-10T00:03:35;1.95;;;1.40;;
51758;SDS011;66684;47.568;18.734;2023-05-10T00:06:01;2.08;;;1.37;;
51758;SDS011;66684;47.568;18.734;2023-05-10T00:08:27;2.35;;;1.30;;
51758;SDS011;66684;47.568;18.734;2023-05-10T00:10:53;2.45;;;1.75;;
51758;SDS011;66684;47.568;18.734;2023-05-10T00:13:19;2.47;;;1.52;;
51758;SDS011;66684;47.568;18.734;2023-05-10T00:15:45;3.28;;;1.75;;
51758;SDS011;66684;47.568;18.734;2023-05-10T00:18:11;4.87;;;1.90;;
51758;SDS011;66684;47.568;18.734;2023-05-10T00:20:36;3.58;;;2.20;;
51758;SDS011;66684;47.568;18.734;2023-05-10T00:23:02;3.40;;;1.87;;
51758;SDS011;66684;47.568;18.734;2023-05-10T00:25:28;2.70;;;2.00;;
51758;SDS011;66684;47.568;18.734;2023-05-10T00:27:54;2.50;;;1.73;;
51758;SDS011;66684;47.568;18.734;2023-05-10T00:30:23;2.62;;;2.08;;
51758;SDS011;66684;47.568;18.734;2023-05-10T00:32:49;4.50;;;2.37;;
51758;SDS011;66684;47.568;18.734;2023-05-10T00:35:17;3.35;;;2.50;;
51758;SDS011;66684;47.568;18.734;2023-05-10T00:37:43;4.20;;;3.08;;
51758;SDS011;66684;47.568;18.734;2023-05-10T00:40:08;3.83;;;2.40;;
51758;SDS011;66684;47.568;18.734;2023-05-10T00:42:35;4.53;;;2.20;;
51758;SDS011;66684;47.568;18.734;2023-05-10T00:45:01;3.40;;;2.25;;
51758;SDS011;66684;47.568;18.734;2023-05-10T00:47:27;5.35;;;2.70;;
51758;SDS011;66684;47.568;18.734;2023-05-10T00:49:53;4.78;;;2.58;;
51758;SDS011;66684;47.568;18.734;2023-05-10T00:52:19;3.67;;;2.20;;
51758;SDS011;66684;47.568;18.734;2023-05-10T00:54:45;3.20;;;2.33;;
51758;SDS011;66684;47.568;18.734;2023-05-10T00:57:13;3.17;;;2.25;;
51758;SDS011;66684;47.568;18.734;2023-05-10T00:59:38;5.45;;;2.50;;
51758;SDS011;66684;47.568;18.734;2023-05-10T01:02:05;4.93;;;2.40;;
51758;SDS011;66684;47.568;18.734;2023-05-10T01:04:32;3.70;;;2.53;;
51758;SDS011;66684;47.568;18.734;2023-05-10T01:06:58;4.20;;;3.00;;
51758;SDS011;66684;47.568;18.734;2023-05-10T01:09:24;4.30;;;3.00;;
51758;SDS011;66684;47.568;18.734;2023-05-10T01:11:51;3.85;;;2.90;;
51758;SDS011;66684;47.568;18.734;2023-05-10T01:14:19;3.20;;;2.50;;
51758;SDS011;66684;47.568;18.734;2023-05-10T01:16:46;6.00;;;3.00;;
51758;SDS011;66684;47.568;18.734;2023-05-10T01:19:23;4.15;;;3.10;;
51758;SDS011;66684;47.568;18.734;2023-05-10T01:33:15;4.90;;;3.05;;
51758;SDS011;66684;47.568;18.734;2023-05-10T01:49:56;6.57;;;2.92;;
51758;SDS011;66684;47.568;18.734;2023-05-10T01:52:30;4.62;;;3.78;;
51758;SDS011;66684;47.568;18.734;2023-05-10T01:55:01;5.15;;;3.70;;
51758;SDS011;66684;47.568;18.734;2023-05-10T01:57:33;9.07;;;3.65;;
51758;SDS011;66684;47.568;18.734;2023-05-10T02:00:02;7.68;;;3.87;;
51758;SDS011;66684;47.568;18.734;2023-05-10T02:02:30;5.28;;;3.80;;
51758;SDS011;66684;47.568;18.734;2023-05-10T02:05:02;4.80;;;3.45;;
51758;SDS011;66684;47.568;18.734;2023-05-10T02:07:31;5.18;;;3.85;;
51758;SDS011;66684;47.568;18.734;2023-05-10T02:09:59;5.47;;;3.70;;
51758;SDS011;66684;47.568;18.734;2023-05-10T02:12:27;5.72;;;3.90;;
51758;SDS011;66684;47.568;18.734;2023-05-10T02:14:55;6.12;;;4.07;;
51758;SDS011;66684;47.568;18.734;2023-05-10T02:17:22;6.15;;;3.62;;
51758;SDS011;66684;47.568;18.734;2023-05-10T02:19:50;6.60;;;3.55;;
51758;SDS011;66684;47.568;18.734;2023-05-10T02:22:18;6.43;;;3.83;;
51758;SDS011;66684;47.568;18.734;2023-05-10T02:24:45;4.25;;;3.50;;
51758;SDS011;66684;47.568;18.734;2023-05-10T02:27:13;5.53;;;3.85;;
51758;SDS011;66684;47.568;18.734;2023-05-10T02:29:41;6.30;;;4.30;;
51758;SDS011;66684;47.568;18.734;2023-05-10T02:32:07;5.93;;;4.18;;
51758;SDS011;66684;47.568;18.734;2023-05-10T02:34:35;5.93;;;4.32;;
51758;SDS011;66684;47.568;18.734;2023-05-10T02:37:01;5.55;;;3.85;;
51758;SDS011;66684;47.568;18.734;2023-05-10T02:39:28;5.82;;;4.28;;
51758;SDS011;66684;47.568;18.734;2023-05-10T02:41:56;4.78;;;3.97;;
51758;SDS011;66684;47.568;18.734;2023-05-10T02:44:23;5.75;;;3.92;;
51758;SDS011;66684;47.568;18.734;2023-05-10T02:46:51;6.05;;;4.40;;
51758;SDS011;66684;47.568;18.734;2023-05-10T02:49:17;7.03;;;4.40;;
51758;SDS011;66684;47.568;18.734;2023-05-10T02:51:44;5.82;;;4.80;;
51758;SDS011;66684;47.568;18.734;2023-05-10T02:54:18;7.82;;;5.15;;
51758;SDS011;66684;47.568;18.734;2023-05-10T02:56:50;8.85;;;4.25;;
51758;SDS011;66684;47.568;18.734;2023-05-10T02:59:19;8.25;;;4.45;;
51758;SDS011;66684;47.568;18.734;2023-05-10T03:01:45;5.85;;;4.35;;
51758;SDS011;66684;47.568;18.734;2023-05-10T03:04:11;5.70;;;4.57;;
51758;SDS011;66684;47.568;18.734;2023-05-10T03:06:36;6.20;;;4.43;;
51758;SDS011;66684;47.568;18.734;2023-05-10T03:09:03;7.20;;;4.65;;
51758;SDS011;66684;47.568;18.734;2023-05-10T03:14:28;6.00;;;4.40;;
51758;SDS011;66684;47.568;18.734;2023-05-10T03:17:11;7.32;;;4.93;;
51758;SDS011;66684;47.568;18.734;2023-05-10T03:19:56;5.53;;;4.15;;
51758;SDS011;66684;47.568;18.734;2023-05-10T03:22:37;5.62;;;4.30;;
51758;SDS011;66684;47.568;18.734;2023-05-10T03:25:06;6.28;;;4.65;;
51758;SDS011;66684;47.568;18.734;2023-05-10T03:27:36;8.68;;;4.87;;
51758;SDS011;66684;47.568;18.734;2023-05-10T03:30:05;7.60;;;5.07;;
51758;SDS011;66684;47.568;18.734;2023-05-10T03:32:34;8.73;;;4.32;;
51758;SDS011;66684;47.568;18.734;2023-05-10T03:35:00;5.80;;;4.60;;
51758;SDS011;66684;47.568;18.734;2023-05-10T03:37:27;8.68;;;4.78;;
51758;SDS011;66684;47.568;18.734;2023-05-10T03:39:53;6.85;;;4.65;;
51758;SDS011;66684;47.568;18.734;2023-05-10T03:42:19;10.45;;;4.93;;
51758;SDS011;66684;47.568;18.734;2023-05-10T03:44:45;7.25;;;4.43;;
51758;SDS011;66684;47.568;18.734;2023-05-10T03:47:11;10.25;;;4.82;;
51758;SDS011;66684;47.568;18.734;2023-05-10T03:49:37;10.95;;;5.47;;
51758;SDS011;66684;47.568;18.734;2023-05-10T03:52:03;9.38;;;4.97;;
51758;SDS011;66684;47.568;18.734;2023-05-10T03:54:29;13.18;;;4.90;;
51758;SDS011;66684;47.568;18.734;2023-05-10T03:56:54;9.43;;;5.15;;
51758;SDS011;66684;47.568;18.734;2023-05-10T03:59:20;9.00;;;5.03;;
51758;SDS011;66684;47.568;18.734;2023-05-10T04:01:46;9.60;;;5.53;;
51758;SDS011;66684;47.568;18.734;2023-05-10T04:04:12;11.43;;;5.15;;
51758;SDS011;66684;47.568;18.734;2023-05-10T04:06:38;9.98;;;5.47;;
51758;SDS011;66684;47.568;18.734;2023-05-10T04:09:04;8.73;;;4.97;;
51758;SDS011;66684;47.568;18.734;2023-05-10T04:11:30;7.00;;;4.93;;
51758;SDS011;66684;47.568;18.734;2023-05-10T04:13:56;6.50;;;5.03;;
51758;SDS011;66684;47.568;18.734;2023-05-10T04:16:22;6.00;;;4.30;;
51758;SDS011;66684;47.568;18.734;2023-05-10T04:18:47;9.40;;;5.28;;
51758;SDS011;66684;47.568;18.734;2023-05-10T04:21:14;8.13;;;5.35;;
51758;SDS011;66684;47.568;18.734;2023-05-10T04:23:40;6.20;;;4.68;;
51758;SDS011;66684;47.568;18.734;2023-05-10T04:26:06;6.85;;;5.30;;
51758;SDS011;66684;47.568;18.734;2023-05-10T04:28:32;9.25;;;4.90;;
51758;SDS011;66684;47.568;18.734;2023-05-10T04:31:05;6.50;;;4.97;;
51758;SDS011;66684;47.568;18.734;2023-05-10T04:33:31;5.97;;;4.37;;
51758;SDS011;66684;47.568;18.734;2023-05-10T04:35:58;6.90;;;4.35;;
51758;SDS011;66684;47.568;18.734;2023-05-10T04:38:24;6.18;;;4.72;;
51758;SDS011;66684;47.568;18.734;2023-05-10T04:40:50;5.55;;;4.65;;
51758;SDS011;66684;47.568;18.734;2023-05-10T04:43:16;6.53;;;4.05;;
51758;SDS011;66684;47.568;18.734;2023-05-10T04:45:42;7.00;;;4.18;;
51758;SDS011;66684;47.568;18.734;2023-05-10T04:48:07;6.18;;;4.40;;
51758;SDS011;66684;47.568;18.734;2023-05-10T04:50:33;9.70;;;4.87;;
51758;SDS011;66684;47.568;18.734;2023-05-10T04:52:59;10.85;;;4.32;;
51758;SDS011;66684;47.568;18.734;2023-05-10T04:55:25;5.43;;;4.25;;
51758;SDS011;66684;47.568;18.734;2023-05-10T04:57:52;4.62;;;3.90;;
51758;SDS011;66684;47.568;18.734;2023-05-10T05:00:20;7.15;;;4.35;;
51758;SDS011;66684;47.568;18.734;2023-05-10T05:02:46;5.45;;;4.25;;
51758;SDS011;66684;47.568;18.734;2023-05-10T05:05:12;5.75;;;4.35;;
51758;SDS011;66684;47.568;18.734;2023-05-10T05:07:38;11.48;;;4.45;;
51758;SDS011;66684;47.568;18.734;2023-05-10T05:10:05;6.57;;;4.40;;
51758;SDS011;66684;47.568;18.734;2023-05-10T05:12:32;7.40;;;4.12;;
51758;SDS011;66684;47.568;18.734;2023-05-10T05:14:58;4.65;;;3.80;;
51758;SDS011;66684;47.568;18.734;2023-05-10T05:17:24;6.85;;;4.80;;
51758;SDS011;66684;47.568;18.734;2023-05-10T05:19:50;8.50;;;5.18;;
51758;SDS011;66684;47.568;18.734;2023-05-10T05:22:16;9.23;;;4.75;;
51758;SDS011;66684;47.568;18.734;2023-05-10T05:24:42;7.30;;;4.30;;
51758;SDS011;66684;47.568;18.734;2023-05-10T05:27:08;7.12;;;4.25;;
51758;SDS011;66684;47.568;18.734;2023-05-10T05:29:33;9.35;;;4.78;;
51758;SDS011;66684;47.568;18.734;2023-05-10T05:31:59;7.03;;;4.25;;
51758;SDS011;66684;47.568;18.734;2023-05-10T05:34:25;8.00;;;4.78;;
51758;SDS011;66684;47.568;18.734;2023-05-10T05:36:51;7.87;;;4.30;;
51758;SDS011;66684;47.568;18.734;2023-05-10T05:39:17;5.32;;;4.40;;
51758;SDS011;66684;47.568;18.734;2023-05-10T05:41:43;6.20;;;4.68;;
51758;SDS011;66684;47.568;18.734;2023-05-10T05:44:09;7.10;;;4.50;;
51758;SDS011;66684;47.568;18.734;2023-05-10T05:46:35;5.25;;;4.30;;
51758;SDS011;66684;47.568;18.734;2023-05-10T05:49:01;5.28;;;4.47;;
51758;SDS011;66684;47.568;18.734;2023-05-10T05:51:27;5.87;;;4.00;;
51758;SDS011;66684;47.568;18.734;2023-05-10T05:53:53;6.68;;;4.30;;
51758;SDS011;66684;47.568;18.734;2023-05-10T05:56:19;6.47;;;4.15;;
51758;SDS011;66684;47.568;18.734;2023-05-10T05:58:50;5.40;;;4.53;;
51758;SDS011;66684;47.568;18.734;2023-05-10T06:01:16;7.03;;;4.37;;
51758;SDS011;66684;47.568;18.734;2023-05-10T06:03:42;6.97;;;4.00;;
51758;SDS011;66684;47.568;18.734;2023-05-10T06:06:08;6.53;;;3.87;;
51758;SDS011;66684;47.568;18.734;2023-05-10T06:08:34;10.20;;;4.05;;
51758;SDS011;66684;47.568;18.734;2023-05-10T06:11:00;5.15;;;3.78;;
51758;SDS011;66684;47.568;18.734;2023-05-10T06:13:26;8.55;;;3.78;;
51758;SDS011;66684;47.568;18.734;2023-05-10T06:15:57;6.35;;;3.95;;
51758;SDS011;66684;47.568;18.734;2023-05-10T06:18:24;6.07;;;3.70;;
51758;SDS011;66684;47.568;18.734;2023-05-10T06:20:50;4.15;;;3.67;;
51758;SDS011;66684;47.568;18.734;2023-05-10T06:23:17;5.62;;;3.40;;
51758;SDS011;66684;47.568;18.734;2023-05-10T06:25:43;6.65;;;3.35;;
51758;SDS011;66684;47.568;18.734;2023-05-10T06:28:09;10.82;;;3.87;;
51758;SDS011;66684;47.568;18.734;2023-05-10T06:30:35;10.60;;;3.42;;
51758;SDS011;66684;47.568;18.734;2023-05-10T06:33:02;5.97;;;3.10;;
51758;SDS011;66684;47.568;18.734;2023-05-10T06:35:28;4.95;;;3.12;;
51758;SDS011;66684;47.568;18.734;2023-05-10T06:37:54;7.70;;;3.42;;
51758;SDS011;66684;47.568;18.734;2023-05-10T06:40:20;6.65;;;3.60;;
51758;SDS011;66684;47.568;18.734;2023-05-10T06:42:47;5.68;;;3.22;;
51758;SDS011;66684;47.568;18.734;2023-05-10T06:45:13;8.35;;;3.67;;
51758;SDS011;66684;47.568;18.734;2023-05-10T06:47:40;9.60;;;3.12;;
51758;SDS011;66684;47.568;18.734;2023-05-10T06:50:07;6.32;;;2.72;;
51758;SDS011;66684;47.568;18.734;2023-05-10T06:52:34;6.10;;;2.90;;
51758;SDS011;66684;47.568;18.734;2023-05-10T06:55:01;4.68;;;2.67;;
51758;SDS011;66684;47.568;18.734;2023-05-10T06:57:27;3.83;;;2.67;;
51758;SDS011;66684;47.568;18.734;2023-05-10T06:59:53;18.23;;;3.60;;
51758;SDS011;66684;47.568;18.734;2023-05-10T07:02:21;4.47;;;3.15;;
51758;SDS011;66684;47.568;18.734;2023-05-10T07:04:48;3.85;;;3.10;;
51758;SDS011;66684;47.568;18.734;2023-05-10T07:07:14;10.55;;;2.62;;
51758;SDS011;66684;47.568;18.734;2023-05-10T07:09:40;3.37;;;2.45;;
51758;SDS011;66684;47.568;18.734;2023-05-10T07:12:06;5.00;;;3.05;;
51758;SDS011;66684;47.568;18.734;2023-05-10T07:14:32;9.68;;;2.87;;
51758;SDS011;66684;47.568;18.734;2023-05-10T07:16:58;6.03;;;3.75;;
51758;SDS011;66684;47.568;18.734;2023-05-10T07:19:23;6.30;;;3.05;;
51758;SDS011;66684;47.568;18.734;2023-05-10T07:21:49;5.20;;;3.30;;
51758;SDS011;66684;47.568;18.734;2023-05-10T07:24:16;5.87;;;3.53;;
51758;SDS011;66684;47.568;18.734;2023-05-10T07:26:42;4.75;;;3.37;;
51758;SDS011;66684;47.568;18.734;2023-05-10T07:29:07;5.95;;;3.22;;
51758;SDS011;66684;47.568;18.734;2023-05-10T07:31:33;8.07;;;3.37;;
51758;SDS011;66684;47.568;18.734;2023-05-10T07:33:59;8.40;;;3.00;;
51758;SDS011;66684;47.568;18.734;2023-05-10T07:36:25;8.45;;;3.62;;
51758;SDS011;66684;47.568;18.734;2023-05-10T07:38:51;4.30;;;3.17;;
51758;SDS011;66684;47.568;18.734;2023-05-10T07:41:17;6.65;;;3.50;;
51758;SDS011;66684;47.568;18.734;2023-05-10T07:43:43;12.40;;;3.20;;
51758;SDS011;66684;47.568;18.734;2023-05-10T07:46:09;4.28;;;3.22;;
51758;SDS011;66684;47.568;18.734;2023-05-10T07:48:36;8.27;;;3.55;;
51758;SDS011;66684;47.568;18.734;2023-05-10T07:51:02;6.60;;;3.08;;
51758;SDS011;66684;47.568;18.734;2023-05-10T07:53:28;3.70;;;3.15;;
51758;SDS011;66684;47.568;18.734;2023-05-10T07:55:55;4.53;;;3.00;;
51758;SDS011;66684;47.568;18.734;2023-05-10T07:58:23;6.32;;;2.75;;
51758;SDS011;66684;47.568;18.734;2023-05-10T08:00:50;5.22;;;2.47;;
51758;SDS011;66684;47.568;18.734;2023-05-10T08:03:16;6.40;;;2.70;;
51758;SDS011;66684;47.568;18.734;2023-05-10T08:05:42;5.12;;;3.03;;
51758;SDS011;66684;47.568;18.734;2023-05-10T08:08:07;8.30;;;2.37;;
51758;SDS011;66684;47.568;18.734;2023-05-10T08:10:33;5.70;;;2.67;;
51758;SDS011;66684;47.568;18.734;2023-05-10T08:12:59;6.22;;;2.78;;
51758;SDS011;66684;47.568;18.734;2023-05-10T08:15:25;4.37;;;3.12;;
51758;SDS011;66684;47.568;18.734;2023-05-10T08:17:51;4.93;;;2.92;;
51758;SDS011;66684;47.568;18.734;2023-05-10T08:20:17;4.18;;;2.72;;
51758;SDS011;66684;47.568;18.734;2023-05-10T08:22:44;5.97;;;2.58;;
51758;SDS011;66684;47.568;18.734;2023-05-10T08:25:11;3.03;;;2.10;;
51758;SDS011;66684;47.568;18.734;2023-05-10T08:27:37;3.42;;;2.62;;
51758;SDS011;66684;47.568;18.734;2023-05-10T08:30:03;5.03;;;2.50;;
51758;SDS011;66684;47.568;18.734;2023-05-10T08:32:29;5.87;;;2.33;;
51758;SDS011;66684;47.568;18.734;2023-05-10T08:34:55;3.50;;;2.22;;
51758;SDS011;66684;47.568;18.734;2023-05-10T08:37:22;4.53;;;2.03;;
51758;SDS011;66684;47.568;18.734;2023-05-10T08:39:49;4.37;;;2.10;;
51758;SDS011;66684;47.568;18.734;2023-05-10T08:42:16;4.53;;;2.50;;
51758;SDS011;66684;47.568;18.734;2023-05-10T08:44:45;3.87;;;2.60;;
51758;SDS011;66684;47.568;18.734;2023-05-10T08:47:13;3.30;;;2.00;;
51758;SDS011;66684;47.568;18.734;2023-05-10T08:49:41;2.62;;;1.80;;
51758;SDS011;66684;47.568;18.734;2023-05-10T08:52:11;6.78;;;2.25;;
51758;SDS011;66684;47.568;18.734;2023-05-10T08:54:40;4.15;;;2.60;;
51758;SDS011;66684;47.568;18.734;2023-05-10T08:57:07;4.97;;;2.50;;
51758;SDS011;66684;47.568;18.734;2023-05-10T08:59:33;3.30;;;1.80;;
51758;SDS011;66684;47.568;18.734;2023-05-10T09:01:59;3.45;;;2.40;;
51758;SDS011;66684;47.568;18.734;2023-05-10T09:04:26;4.75;;;2.17;;
51758;SDS011;66684;47.568;18.734;2023-05-10T09:06:52;4.37;;;2.03;;
51758;SDS011;66684;47.568;18.734;2023-05-10T09:09:19;5.57;;;2.20;;
51758;SDS011;66684;47.568;18.734;2023-05-10T09:11:45;3.10;;;2.00;;
51758;SDS011;66684;47.568;18.734;2023-05-10T09:14:12;7.57;;;2.40;;
51758;SDS011;66684;47.568;18.734;2023-05-10T09:16:39;3.47;;;1.80;;
51758;SDS011;66684;47.568;18.734;2023-05-10T09:19:05;3.53;;;2.10;;
51758;SDS011;66684;47.568;18.734;2023-05-10T09:21:33;3.70;;;2.00;;
51758;SDS011;66684;47.568;18.734;2023-05-10T09:24:05;3.53;;;1.80;;
51758;SDS011;66684;47.568;18.734;2023-05-10T09:26:32;3.75;;;2.03;;
51758;SDS011;66684;47.568;18.734;2023-05-10T09:28:59;2.20;;;1.70;;
51758;SDS011;66684;47.568;18.734;2023-05-10T09:31:42;6.20;;;1.50;;
51758;SDS011;66684;47.568;18.734;2023-05-10T09:34:39;2.33;;;1.70;;
51758;SDS011;66684;47.568;18.734;2023-05-10T09:37:06;4.43;;;2.00;;
51758;SDS011;66684;47.568;18.734;2023-05-10T09:39:34;3.22;;;1.73;;
51758;SDS011;66684;47.568;18.734;2023-05-10T09:42:02;2.30;;;1.45;;
51758;SDS011;66684;47.568;18.734;2023-05-10T09:44:30;4.18;;;1.73;;
51758;SDS011;66684;47.568;18.734;2023-05-10T09:46:58;6.35;;;2.00;;
51758;SDS011;66684;47.568;18.734;2023-05-10T09:49:24;3.53;;;1.83;;
51758;SDS011;66684;47.568;18.734;2023-05-10T09:52:12;3.00;;;1.67;;
51758;SDS011;66684;47.568;18.734;2023-05-10T09:54:36;3.60;;;1.73;;
51758;SDS011;66684;47.568;18.734;2023-05-10T09:57:02;3.42;;;1.50;;
51758;SDS011;66684;47.568;18.734;2023-05-10T09:59:28;2.83;;;1.83;;
51758;SDS011;66684;47.568;18.734;2023-05-10T10:01:58;2.37;;;1.35;;
51758;SDS011;66684;47.568;18.734;2023-05-10T10:04:25;4.57;;;1.87;;
51758;SDS011;66684;47.568;18.734;2023-05-10T10:06:58;2.95;;;1.73;;
51758;SDS011;66684;47.568;18.734;2023-05-10T10:09:29;2.60;;;1.60;;
51758;SDS011;66684;47.568;18.734;2023-05-10T10:11:55;5.90;;;1.40;;
51758;SDS011;66684;47.568;18.734;2023-05-10T10:14:22;3.10;;;1.50;;
51758;SDS011;66684;47.568;18.734;2023-05-10T10:16:52;2.72;;;1.40;;
51758;SDS011;66684;47.568;18.734;2023-05-10T10:19:18;3.50;;;1.60;;
51758;SDS011;66684;47.568;18.734;2023-05-10T10:21:46;3.87;;;1.73;;
51758;SDS011;66684;47.568;18.734;2023-05-10T10:24:12;5.25;;;1.65;;
51758;SDS011;66684;47.568;18.734;2023-05-10T10:26:38;3.17;;;1.87;;
51758;SDS011;66684;47.568;18.734;2023-05-10T10:36:54;3.87;;;1.23;;
51758;SDS011;66684;47.568;18.734;2023-05-10T10:39:22;6.85;;;1.60;;
51758;SDS011;66684;47.568;18.734;2023-05-10T10:41:53;2.70;;;1.20;;
51758;SDS011;66684;47.568;18.734;2023-05-10T10:50:23;3.50;;;1.40;;
51758;SDS011;66684;47.568;18.734;2023-05-10T10:52:33;3.67;;;1.20;;
51758;SDS011;66684;47.568;18.734;2023-05-10T10:55:04;3.37;;;1.48;;
51758;SDS011;66684;47.568;18.734;2023-05-10T10:57:32;2.37;;;1.45;;
51758;SDS011;66684;47.568;18.734;2023-05-10T11:08:08;2.22;;;1.65;;
51758;SDS011;66684;47.568;18.734;2023-05-10T11:16:10;1.60;;;0.90;;
51758;SDS011;66684;47.568;18.734;2023-05-10T11:18:37;2.75;;;1.35;;
51758;SDS011;66684;47.568;18.734;2023-05-10T11:21:03;3.03;;;1.25;;
51758;SDS011;66684;47.568;18.734;2023-05-10T11:23:34;3.28;;;1.08;;
51758;SDS011;66684;47.568;18.734;2023-05-10T11:26:14;3.62;;;1.10;;
51758;SDS011;66684;47.568;18.734;2023-05-10T11:31:10;1.60;;;0.93;;
51758;SDS011;66684;47.568;18.734;2023-05-10T11:33:51;3.17;;;0.73;;
51758;SDS011;66684;47.568;18.734;2023-05-10T11:36:18;2.55;;;1.10;;
51758;SDS011;66684;47.568;18.734;2023-05-10T11:38:46;1.30;;;1.00;;
51758;SDS011;66684;47.568;18.734;2023-05-10T11:41:15;4.97;;;1.08;;
51758;SDS011;66684;47.568;18.734;2023-05-10T11:43:43;2.00;;;0.90;;
51758;SDS011;66684;47.568;18.734;2023-05-10T11:46:12;2.75;;;1.00;;
51758;SDS011;66684;47.568;18.734;2023-05-10T11:48:39;4.40;;;1.10;;
51758;SDS011;66684;47.568;18.734;2023-05-10T11:51:08;2.95;;;1.05;;
51758;SDS011;66684;47.568;18.734;2023-05-10T11:53:36;1.83;;;0.77;;
51758;SDS011;66684;47.568;18.734;2023-05-10T11:56:02;3.12;;;1.00;;
51758;SDS011;66684;47.568;18.734;2023-05-10T11:58:31;4.10;;;0.90;;
51758;SDS011;66684;47.568;18.734;2023-05-10T12:01:01;2.20;;;0.80;;
51758;SDS011;66684;47.568;18.734;2023-05-10T12:03:28;2.58;;;0.70;;
51758;SDS011;66684;47.568;18.734;2023-05-10T12:05:55;1.87;;;0.82;;
51758;SDS011;66684;47.568;18.734;2023-05-10T12:08:25;2.55;;;0.80;;
51758;SDS011;66684;47.568;18.734;2023-05-10T12:10:53;1.83;;;0.70;;
51758;SDS011;66684;47.568;18.734;2023-05-10T12:13:29;0.70;;;0.40;;
51758;SDS011;66684;47.568;18.734;2023-05-10T12:15:57;5.35;;;0.68;;
51758;SDS011;66684;47.568;18.734;2023-05-10T12:18:23;1.77;;;0.70;;
51758;SDS011;66684;47.568;18.734;2023-05-10T12:20:53;1.83;;;0.40;;
51758;SDS011;66684;47.568;18.734;2023-05-10T12:23:19;2.15;;;0.45;;
51758;SDS011;66684;47.568;18.734;2023-05-10T12:25:46;1.23;;;0.70;;
51758;SDS011;66684;47.568;18.734;2023-05-10T12:28:12;1.62;;;0.60;;
51758;SDS011;66684;47.568;18.734;2023-05-10T12:30:38;1.50;;;0.50;;
51758;SDS011;66684;47.568;18.734;2023-05-10T12:35:43;3.15;;;0.75;;
51758;SDS011;66684;47.568;18.734;2023-05-10T12:38:32;3.33;;;0.80;;
51758;SDS011;66684;47.568;18.734;2023-05-10T12:41:00;3.03;;;0.50;;
51758;SDS011;66684;47.568;18.734;2023-05-10T12:43:27;1.42;;;0.60;;
51758;SDS011;66684;47.568;18.734;2023-05-10T12:45:54;6.78;;;0.80;;
51758;SDS011;66684;47.568;18.734;2023-05-10T12:48:20;1.42;;;0.50;;
51758;SDS011;66684;47.568;18.734;2023-05-10T12:50:46;4.80;;;0.80;;
51758;SDS011;66684;47.568;18.734;2023-05-10T12:53:13;1.80;;;0.80;;
51758;SDS011;66684;47.568;18.734;2023-05-10T12:55:41;1.20;;;0.62;;
51758;SDS011;66684;47.568;18.734;2023-05-10T12:58:07;3.72;;;0.95;;
51758;SDS011;66684;47.568;18.734;2023-05-10T13:00:33;1.73;;;0.70;;
51758;SDS011;66684;47.568;18.734;2023-05-10T13:02:59;1.70;;;0.70;;
51758;SDS011;66684;47.568;18.734;2023-05-10T13:05:25;1.95;;;0.70;;
51758;SDS011;66684;47.568;18.734;2023-05-10T13:07:51;1.80;;;0.70;;
51758;SDS011;66684;47.568;18.734;2023-05-10T13:10:17;3.47;;;0.98;;
51758;SDS011;66684;47.568;18.734;2023-05-10T13:12:43;2.53;;;0.85;;
51758;SDS011;66684;47.568;18.734;2023-05-10T13:15:08;3.72;;;0.80;;
51758;SDS011;66684;47.568;18.734;2023-05-10T13:17:34;2.67;;;0.65;;
51758;SDS011;66684;47.568;18.734;2023-05-10T13:20:00;1.40;;;0.60;;
51758;SDS011;66684;47.568;18.734;2023-05-10T13:22:26;3.50;;;0.75;;
51758;SDS011;66684;47.568;18.734;2023-05-10T13:24:52;3.45;;;0.98;;
51758;SDS011;66684;47.568;18.734;2023-05-10T13:27:18;1.70;;;0.75;;
51758;SDS011;66684;47.568;18.734;2023-05-10T13:29:44;1.95;;;0.80;;
51758;SDS011;66684;47.568;18.734;2023-05-10T13:32:10;1.92;;;0.80;;
51758;SDS011;66684;47.568;18.734;2023-05-10T13:34:36;1.83;;;0.80;;
51758;SDS011;66684;47.568;18.734;2023-05-10T13:37:02;1.80;;;0.70;;
51758;SDS011;66684;47.568;18.734;2023-05-10T13:39:27;5.60;;;0.90;;
51758;SDS011;66684;47.568;18.734;2023-05-10T13:41:56;6.15;;;1.00;;
51758;SDS011;66684;47.568;18.734;2023-05-10T13:44:22;2.92;;;0.50;;
51758;SDS011;66684;47.568;18.734;2023-05-10T13:46:48;2.58;;;0.50;;
51758;SDS011;66684;47.568;18.734;2023-05-10T13:49:13;1.75;;;0.50;;
51758;SDS011;66684;47.568;18.734;2023-05-10T13:51:39;0.98;;;0.50;;
51758;SDS011;66684;47.568;18.734;2023-05-10T13:54:05;4.85;;;0.70;;
51758;SDS011;66684;47.568;18.734;2023-05-10T13:56:31;2.78;;;0.50;;
51758;SDS011;66684;47.568;18.734;2023-05-10T13:58:57;3.60;;;0.55;;
51758;SDS011;66684;47.568;18.734;2023-05-10T14:01:24;4.28;;;0.50;;
51758;SDS011;66684;47.568;18.734;2023-05-10T14:03:49;2.50;;;0.77;;
51758;SDS011;66684;47.568;18.734;2023-05-10T14:06:15;2.15;;;0.50;;
51758;SDS011;66684;47.568;18.734;2023-05-10T14:08:41;1.35;;;0.45;;
51758;SDS011;66684;47.568;18.734;2023-05-10T14:11:07;2.08;;;0.77;;
51758;SDS011;66684;47.568;18.734;2023-05-10T14:13:33;4.82;;;0.75;;
51758;SDS011;66684;47.568;18.734;2023-05-10T14:15:59;4.72;;;0.90;;
51758;SDS011;66684;47.568;18.734;2023-05-10T14:18:26;1.62;;;0.55;;
51758;SDS011;66684;47.568;18.734;2023-05-10T14:20:52;0.90;;;0.40;;
51758;SDS011;66684;47.568;18.734;2023-05-10T14:23:18;7.28;;;0.40;;
51758;SDS011;66684;47.568;18.734;2023-05-10T14:25:50;1.87;;;0.32;;
51758;SDS011;66684;47.568;18.734;2023-05-10T14:28:16;1.40;;;0.35;;
51758;SDS011;66684;47.568;18.734;2023-05-10T14:30:46;3.58;;;0.40;;
51758;SDS011;66684;47.568;18.734;2023-05-10T14:33:12;4.37;;;0.82;;
51758;SDS011;66684;47.568;18.734;2023-05-10T14:35:38;2.97;;;0.65;;
51758;SDS011;66684;47.568;18.734;2023-05-10T14:38:05;4.45;;;0.50;;
51758;SDS011;66684;47.568;18.734;2023-05-10T14:40:30;2.60;;;0.60;;
51758;SDS011;66684;47.568;18.734;2023-05-10T14:42:56;1.10;;;0.50;;
51758;SDS011;66684;47.568;18.734;2023-05-10T14:45:22;5.18;;;0.55;;
51758;SDS011;66684;47.568;18.734;2023-05-10T14:47:49;1.33;;;0.50;;
51758;SDS011;66684;47.568;18.734;2023-05-10T14:50:15;3.92;;;0.57;;
51758;SDS011;66684;47.568;18.734;2023-05-10T14:52:44;5.53;;;0.60;;
51758;SDS011;66684;47.568;18.734;2023-05-10T14:55:10;3.08;;;0.40;;
51758;SDS011;66684;47.568;18.734;2023-05-10T14:57:36;0.90;;;0.43;;
51758;SDS011;66684;47.568;18.734;2023-05-10T15:00:02;2.35;;;0.50;;
51758;SDS011;66684;47.568;18.734;2023-05-10T15:02:30;3.08;;;0.57;;
51758;SDS011;66684;47.568;18.734;2023-05-10T15:04:56;5.55;;;0.57;;
51758;SDS011;66684;47.568;18.734;2023-05-10T15:07:23;3.25;;;0.40;;
51758;SDS011;66684;47.568;18.734;2023-05-10T15:09:49;4.20;;;0.50;;
51758;SDS011;66684;47.568;18.734;2023-05-10T15:12:17;1.92;;;0.52;;
51758;SDS011;66684;47.568;18.734;2023-05-10T15:14:43;1.98;;;0.50;;
51758;SDS011;66684;47.568;18.734;2023-05-10T15:17:09;3.72;;;0.50;;
51758;SDS011;66684;47.568;18.734;2023-05-10T15:19:35;4.57;;;0.40;;
51758;SDS011;66684;47.568;18.734;2023-05-10T15:22:01;1.40;;;0.52;;
51758;SDS011;66684;47.568;18.734;2023-05-10T15:24:28;3.12;;;0.60;;
51758;SDS011;66684;47.568;18.734;2023-05-10T15:26:54;2.33;;;0.47;;
51758;SDS011;66684;47.568;18.734;2023-05-10T15:29:20;7.95;;;0.57;;
51758;SDS011;66684;47.568;18.734;2023-05-10T15:31:46;4.20;;;0.43;;
51758;SDS011;66684;47.568;18.734;2023-05-10T15:34:13;1.27;;;0.40;;